Página principal
METAR-TAF:

METAR-TAF

Aeroportos :

Aeroporto Internacional Hato

Curaçao, Antilhas Neerlandesas

latitude: 12-12N, longitude: 068-58W, altura: 9 m

Observação actual do tempo

O boletim foi feito há 1 hora e 9 minutos, às 10:00 UTC
Vento 10 kt de este
Temperatura 28°C
Humidade 79%
Pressão 1010 hPa
Visibilidade 10 km ou mais
Nuvens fragmentadasa uma altura de 4300 ft

METAR: TNCC 181000Z AUTO 09010KT 9999 BKN043 28/24 Q1010 NOSIG

Hora: 07:09 (11:09 UTC)

Previsão

O boletim foi feito há 7 horas e 9 minutos, às 04:00 UTC
Previsão válida de 18 às 06 UTC a 19 às 06 UTC
Vento 8 kt de este
Visibilidade 10 km ou mais
Nuvens dispersasa uma altura de 1800 ft
Nuvens fragmentadasa uma altura de 4000 ft
Temporariamente
de 18 às 06 UTC a 19 às 06 UTC
Visibilidade: 6000 m
Nuvens fragmentadasa uma altura de 1400 ft
Nuvens fragmentadasa uma altura de 3000 ft
aguaceiros de chuva

TAF: TNCC 180400Z 1806/1906 08008KT 9999 SCT018 BKN040 TEMPO 1806/1906 6000 SHRA BKN014 BKN030

Observações e previsões do tempo de mais de 4000 aeroportos (mensagens METAR e TAF).

As estações disponíveis são os pontos amarelos e vermelhos sobre o mapa.

Mova o rato sobre o mapa para ver o nome da estação.

Depois clique no ponto para visualizar as observações e previsões meteorológicas.

Para alterar o mapa : clique nos botões verdes com uma cruz preta para aumentar o zoom; no botão verde com uma pitada de zoom; ou nas setas verdes para mapas adjacentes.


METAR-TAF: